createdAt,value
2023-05-06T00:00:23.729Z,20.17
2023-05-06T00:02:53.806Z,20.19
2023-05-06T00:05:24.161Z,20.23
2023-05-06T00:07:54.660Z,20.29
2023-05-06T00:10:24.842Z,20.26
2023-05-06T00:12:54.797Z,20.20
2023-05-06T00:15:24.758Z,20.20
2023-05-06T00:17:56.645Z,20.17
2023-05-06T00:20:26.858Z,20.15
2023-05-06T00:22:57.227Z,20.16
2023-05-06T00:25:27.740Z,20.16
2023-05-06T00:27:57.771Z,20.15
2023-05-06T00:30:27.767Z,20.12
2023-05-06T00:32:57.868Z,20.10
2023-05-06T00:35:28.156Z,20.10
2023-05-06T00:38:07.767Z,20.10
2023-05-06T00:40:38.221Z,20.09
2023-05-06T00:43:07.850Z,20.09
2023-05-06T00:45:39.443Z,20.12
2023-05-06T00:48:11.589Z,20.20
2023-05-06T00:50:42.229Z,20.22
2023-05-06T00:53:12.933Z,20.17
2023-05-06T00:55:43.472Z,20.09
2023-05-06T00:58:14.468Z,20.08
2023-05-06T01:00:44.642Z,20.08
2023-05-06T01:03:14.934Z,20.03
2023-05-06T01:06:01.526Z,20.05
2023-05-06T01:08:34.002Z,20.05
2023-05-06T01:11:22.761Z,20.08
2023-05-06T01:13:58.018Z,20.03
2023-05-06T01:16:30.676Z,20.09
2023-05-06T01:19:01.777Z,20.12
2023-05-06T01:21:35.828Z,20.15
2023-05-06T01:24:06.007Z,20.16
2023-05-06T01:26:36.279Z,20.10
2023-05-06T01:29:06.436Z,20.12
2023-05-06T01:31:51.872Z,20.17
2023-05-06T01:34:35.484Z,20.17
2023-05-06T01:37:18.521Z,20.19
2023-05-06T01:39:49.681Z,20.15
2023-05-06T01:42:20.179Z,20.12
2023-05-06T01:44:53.232Z,20.10
2023-05-06T01:47:23.596Z,20.08
2023-05-06T01:49:53.546Z,20.08
2023-05-06T01:52:23.768Z,20.10
2023-05-06T01:54:53.888Z,20.10
2023-05-06T01:57:24.122Z,20.09
2023-05-06T01:59:54.316Z,20.10
2023-05-06T02:02:26.927Z,20.10
2023-05-06T02:04:56.648Z,20.13
2023-05-06T02:07:26.777Z,20.10
2023-05-06T02:09:57.538Z,20.12
2023-05-06T02:12:28.180Z,20.08
2023-05-06T02:14:58.632Z,20.08
2023-05-06T02:17:28.313Z,20.06
2023-05-06T02:19:59.112Z,20.08
2023-05-06T02:22:29.340Z,20.10
2023-05-06T02:24:59.443Z,20.08
2023-05-06T02:27:29.766Z,20.09
2023-05-06T02:30:00.707Z,20.13
2023-05-06T02:32:32.359Z,20.12
2023-05-06T02:35:02.381Z,20.10
2023-05-06T02:37:32.529Z,20.10
2023-05-06T02:40:04.398Z,20.08
2023-05-06T02:42:37.090Z,20.09
2023-05-06T02:45:07.844Z,20.06
2023-05-06T02:47:38.386Z,20.05
2023-05-06T02:50:08.181Z,20.06
2023-05-06T02:52:38.307Z,20.03
2023-05-06T02:55:09.123Z,20.02
2023-05-06T02:57:39.403Z,20.06
2023-05-06T03:00:12.094Z,20.09
2023-05-06T03:02:42.304Z,20.03
2023-05-06T03:05:12.522Z,20.05
2023-05-06T03:07:43.239Z,20.06
2023-05-06T03:10:13.315Z,20.03
2023-05-06T03:12:43.360Z,20.09
2023-05-06T03:15:13.529Z,20.10
2023-05-06T03:17:43.703Z,20.06
2023-05-06T03:20:14.732Z,20.06
2023-05-06T03:22:51.463Z,20.06
2023-05-06T03:25:22.807Z,20.05
2023-05-06T03:27:53.972Z,20.05
2023-05-06T03:30:25.763Z,20.10
2023-05-06T03:32:59.631Z,20.10
2023-05-06T03:35:32.927Z,20.12
2023-05-06T03:38:03.953Z,20.12
2023-05-06T03:40:41.587Z,20.13
2023-05-06T03:43:12.055Z,20.15
2023-05-06T03:45:42.113Z,20.16
2023-05-06T03:48:12.288Z,20.17
2023-05-06T03:50:45.402Z,20.17
2023-05-06T03:53:16.413Z,20.19
2023-05-06T03:55:48.547Z,20.17
2023-05-06T03:58:19.310Z,20.16
2023-05-06T04:00:49.873Z,20.15
2023-05-06T04:03:20.159Z,20.12
2023-05-06T04:05:53.221Z,20.12
2023-05-06T04:08:27.776Z,20.13
2023-05-06T04:10:58.296Z,20.10
2023-05-06T04:13:31.125Z,20.03
2023-05-06T04:16:05.099Z,20.02
2023-05-06T04:18:42.171Z,19.99
2023-05-06T04:21:14.864Z,19.99
2023-05-06T04:23:50.220Z,20.02
2023-05-06T04:26:24.574Z,19.97
2023-05-06T04:28:55.039Z,19.87
2023-05-06T04:31:25.466Z,19.86
2023-05-06T04:33:55.949Z,19.85
2023-05-06T04:36:28.342Z,19.87
2023-05-06T04:39:30.390Z,19.93
2023-05-06T04:42:00.952Z,19.92
2023-05-06T04:44:39.553Z,19.86
2023-05-06T04:47:12.129Z,19.85
2023-05-06T04:49:45.280Z,19.87
2023-05-06T04:52:15.931Z,19.89
2023-05-06T04:54:46.135Z,19.87
2023-05-06T04:57:16.238Z,19.87
2023-05-06T04:59:47.770Z,19.86
2023-05-06T05:02:37.148Z,19.86
2023-05-06T05:05:08.999Z,19.86
2023-05-06T05:07:39.765Z,19.89
2023-05-06T05:10:11.598Z,19.93
2023-05-06T05:12:41.963Z,19.96
2023-05-06T05:15:12.631Z,19.97
2023-05-06T05:17:43.997Z,19.97
2023-05-06T05:20:14.289Z,19.97
2023-05-06T05:22:44.041Z,20.00
2023-05-06T05:25:14.727Z,20.03
2023-05-06T05:27:46.101Z,20.03
2023-05-06T05:30:16.560Z,20.03
2023-05-06T05:32:47.247Z,20.00
2023-05-06T05:35:18.690Z,20.00
2023-05-06T05:37:50.412Z,19.99
2023-05-06T05:40:21.135Z,20.00
2023-05-06T05:42:54.733Z,20.00
2023-05-06T05:45:35.103Z,20.02
2023-05-06T05:48:05.618Z,19.97
2023-05-06T05:50:36.161Z,19.97
2023-05-06T05:53:07.677Z,19.96
2023-05-06T05:55:39.809Z,19.97
2023-05-06T05:58:12.634Z,19.95
2023-05-06T06:00:44.320Z,19.96
2023-05-06T06:03:19.779Z,19.97
2023-05-06T06:05:50.648Z,19.95
2023-05-06T06:08:20.783Z,19.90
2023-05-06T06:10:53.747Z,19.86
2023-05-06T06:13:29.197Z,19.86
2023-05-06T06:16:01.938Z,19.85
2023-05-06T06:18:32.189Z,19.82
2023-05-06T06:21:02.490Z,19.85
2023-05-06T06:23:32.576Z,19.86
2023-05-06T06:26:05.761Z,19.85
2023-05-06T06:28:36.297Z,19.85
2023-05-06T06:31:06.741Z,19.79
2023-05-06T06:33:36.823Z,19.76
2023-05-06T06:36:07.299Z,19.74
2023-05-06T06:38:37.680Z,19.68
2023-05-06T06:41:07.842Z,19.66
2023-05-06T06:43:38.075Z,19.66
2023-05-06T06:46:19.150Z,19.68
2023-05-06T06:48:49.981Z,19.71
2023-05-06T06:51:20.150Z,19.72
2023-05-06T06:53:51.690Z,19.76
2023-05-06T06:56:22.501Z,19.78
2023-05-06T06:58:53.432Z,19.79
2023-05-06T07:01:23.770Z,19.79
2023-05-06T07:03:53.668Z,19.78
2023-05-06T07:06:23.861Z,19.79
2023-05-06T07:08:53.859Z,19.82
2023-05-06T07:11:23.880Z,19.79
2023-05-06T07:13:53.938Z,19.82
2023-05-06T07:16:24.090Z,19.81
2023-05-06T07:18:55.028Z,19.82
2023-05-06T07:21:25.160Z,19.85
2023-05-06T07:23:55.295Z,19.85
2023-05-06T07:26:25.488Z,19.83
2023-05-06T07:28:55.584Z,19.86
2023-05-06T07:31:25.954Z,19.87
2023-05-06T07:33:56.059Z,19.87
2023-05-06T07:36:26.667Z,19.86
2023-05-06T07:38:56.801Z,19.86
2023-05-06T07:41:26.765Z,19.90
2023-05-06T07:43:56.541Z,19.90
2023-05-06T07:46:26.625Z,19.90
2023-05-06T07:48:56.331Z,19.90
2023-05-06T07:51:26.314Z,19.87
2023-05-06T07:53:56.475Z,19.90
2023-05-06T07:56:26.714Z,19.90
2023-05-06T07:58:57.343Z,19.89
2023-05-06T08:01:27.752Z,19.87
2023-05-06T08:03:57.666Z,19.85
2023-05-06T08:06:28.272Z,19.85
2023-05-06T08:08:58.004Z,19.87
2023-05-06T08:11:27.980Z,19.89
2023-05-06T08:13:58.132Z,19.87
2023-05-06T08:16:28.227Z,19.85
2023-05-06T08:18:58.392Z,19.86
2023-05-06T08:21:29.425Z,19.89
2023-05-06T08:23:59.707Z,19.89
2023-05-06T08:26:29.834Z,19.93
2023-05-06T08:29:01.311Z,19.92
2023-05-06T08:31:30.891Z,19.92
2023-05-06T08:34:00.951Z,19.89
2023-05-06T08:36:31.324Z,19.90
2023-05-06T08:39:00.869Z,19.93
2023-05-06T08:41:32.852Z,19.96
2023-05-06T08:44:03.524Z,19.97
2023-05-06T08:46:33.718Z,19.93
2023-05-06T08:49:04.194Z,19.97
2023-05-06T08:51:36.658Z,20.03
2023-05-06T08:54:08.813Z,20.05
2023-05-06T08:56:41.569Z,20.05
2023-05-06T08:59:12.843Z,20.05
2023-05-06T09:01:43.250Z,20.03
2023-05-06T09:04:14.195Z,20.03
2023-05-06T09:06:44.834Z,20.00
2023-05-06T09:09:16.134Z,19.99
2023-05-06T09:11:46.533Z,19.99
2023-05-06T09:14:17.670Z,20.03
2023-05-06T09:16:50.979Z,20.02
2023-05-06T09:19:22.987Z,20.05
2023-05-06T09:21:53.831Z,20.03
2023-05-06T09:24:24.828Z,20.05
2023-05-06T09:26:56.543Z,20.05
2023-05-06T09:29:27.082Z,20.06
2023-05-06T09:31:57.613Z,20.08
2023-05-06T09:34:29.428Z,20.09
2023-05-06T09:37:00.140Z,20.09
2023-05-06T09:39:30.483Z,20.12
2023-05-06T09:42:01.111Z,20.13
2023-05-06T09:44:31.308Z,20.17
2023-05-06T09:47:00.915Z,20.17
2023-05-06T09:49:31.575Z,20.16
2023-05-06T09:52:02.578Z,20.17
2023-05-06T09:54:33.714Z,20.19
2023-05-06T09:57:06.228Z,20.13
2023-05-06T09:59:37.491Z,20.15
2023-05-06T10:02:08.107Z,20.15
2023-05-06T10:04:41.866Z,20.16
2023-05-06T10:07:15.368Z,20.16
2023-05-06T10:09:45.375Z,20.13
2023-05-06T10:12:16.783Z,20.10
2023-05-06T10:14:47.257Z,20.13
2023-05-06T10:17:20.156Z,20.17
2023-05-06T10:19:53.812Z,20.15
2023-05-06T10:22:42.365Z,20.13
2023-05-06T10:25:30.622Z,20.17
2023-05-06T10:28:02.998Z,20.15
2023-05-06T10:30:36.907Z,20.20
2023-05-06T10:33:11.872Z,20.17
2023-05-06T10:36:03.034Z,20.20
2023-05-06T10:38:43.755Z,20.22
2023-05-06T10:41:15.482Z,20.27
2023-05-06T10:43:46.450Z,20.29
2023-05-06T10:46:18.180Z,20.30
2023-05-06T10:49:07.306Z,20.37
2023-05-06T10:51:39.623Z,20.36
2023-05-06T10:54:23.011Z,20.39
2023-05-06T10:56:53.121Z,20.43
2023-05-06T10:59:26.094Z,20.44
2023-05-06T11:02:05.628Z,20.48
2023-05-06T11:04:35.734Z,20.50
2023-05-06T11:07:25.303Z,20.51
2023-05-06T11:09:59.797Z,20.46
2023-05-06T11:12:50.183Z,20.41
2023-05-06T11:15:38.920Z,20.41
2023-05-06T11:18:30.408Z,20.40
2023-05-06T11:21:05.384Z,20.40
2023-05-06T11:23:44.761Z,20.46
2023-05-06T11:26:15.639Z,20.48
2023-05-06T11:28:48.177Z,20.51
2023-05-06T11:31:18.798Z,20.47
2023-05-06T11:33:52.454Z,20.44
2023-05-06T11:36:23.012Z,20.47
2023-05-06T11:38:54.215Z,20.51
2023-05-06T11:41:25.058Z,20.54
2023-05-06T11:43:55.700Z,20.51
2023-05-06T11:46:26.725Z,20.47
2023-05-06T11:48:56.965Z,20.46
2023-05-06T11:51:27.695Z,20.46
2023-05-06T11:54:12.062Z,20.44
2023-05-06T11:57:01.223Z,20.44
2023-05-06T11:59:36.946Z,20.43
2023-05-06T12:02:13.014Z,20.47
2023-05-06T12:04:48.124Z,20.53
2023-05-06T12:07:18.893Z,20.57
2023-05-06T12:09:51.213Z,20.53
2023-05-06T12:12:24.638Z,20.58
2023-05-06T12:14:55.235Z,20.58
2023-05-06T12:17:25.729Z,20.63
2023-05-06T12:19:55.866Z,20.68
2023-05-06T12:22:45.078Z,20.74
2023-05-06T12:25:17.074Z,20.74
2023-05-06T12:27:47.292Z,20.71
2023-05-06T12:30:17.630Z,20.64
2023-05-06T12:33:03.997Z,20.65
2023-05-06T12:35:34.526Z,20.67
2023-05-06T12:38:17.486Z,20.64
2023-05-06T12:40:55.831Z,20.68
2023-05-06T12:43:34.840Z,20.67
2023-05-06T12:46:09.547Z,20.65
2023-05-06T12:48:40.492Z,20.64
2023-05-06T12:51:21.358Z,20.63
2023-05-06T12:53:51.626Z,20.60
2023-05-06T12:56:23.109Z,20.61
2023-05-06T12:59:03.878Z,20.63
2023-05-06T13:01:34.009Z,20.61
2023-05-06T13:04:04.070Z,20.60
2023-05-06T13:06:34.274Z,20.58
2023-05-06T13:09:05.807Z,20.60
2023-05-06T13:11:35.858Z,20.60
2023-05-06T13:14:05.881Z,20.64
2023-05-06T13:16:36.558Z,20.64
2023-05-06T13:19:07.258Z,20.63
2023-05-06T13:21:40.209Z,20.61
2023-05-06T13:24:10.813Z,20.64
2023-05-06T13:26:40.981Z,20.64
2023-05-06T13:29:11.190Z,20.67
2023-05-06T13:31:41.434Z,20.67
2023-05-06T13:34:11.802Z,20.64
2023-05-06T13:36:41.740Z,20.70
2023-05-06T13:39:11.943Z,20.78
2023-05-06T13:41:42.059Z,20.81
2023-05-06T13:44:12.148Z,20.87
2023-05-06T13:46:44.782Z,21.01
2023-05-06T13:49:16.466Z,21.12
2023-05-06T13:51:46.460Z,21.21
2023-05-06T13:54:16.118Z,21.31
2023-05-06T13:56:46.211Z,21.38
2023-05-06T13:59:16.687Z,21.36
2023-05-06T14:01:47.129Z,21.43
2023-05-06T14:04:17.421Z,21.56
2023-05-06T14:06:47.568Z,21.59
2023-05-06T14:09:17.815Z,21.56
2023-05-06T14:11:47.485Z,21.47
2023-05-06T14:14:17.398Z,21.50
2023-05-06T14:16:46.976Z,21.49
2023-05-06T14:19:16.913Z,21.45
2023-05-06T14:21:47.017Z,21.45
2023-05-06T14:24:17.014Z,21.50
2023-05-06T14:26:47.244Z,21.63
2023-05-06T14:29:17.037Z,21.77
2023-05-06T14:31:47.122Z,21.94
2023-05-06T14:34:16.772Z,22.13
2023-05-06T14:36:46.687Z,22.28
2023-05-06T14:39:16.371Z,22.79
2023-05-06T14:41:46.985Z,22.86
2023-05-06T14:44:17.094Z,22.98
2023-05-06T14:46:46.816Z,23.22
2023-05-06T14:49:16.966Z,23.27
2023-05-06T14:51:51.030Z,23.13
2023-05-06T14:54:21.224Z,23.05
2023-05-06T14:56:51.394Z,22.94
2023-05-06T14:59:21.009Z,22.92
2023-05-06T15:01:51.047Z,22.88
2023-05-06T15:04:20.720Z,22.91
2023-05-06T15:06:50.431Z,22.86
2023-05-06T15:09:20.603Z,22.94
2023-05-06T15:11:50.644Z,23.02
2023-05-06T15:14:20.449Z,23.16
2023-05-06T15:16:50.565Z,23.22
2023-05-06T15:19:20.549Z,23.29
2023-05-06T15:21:50.466Z,23.40
2023-05-06T15:24:20.076Z,23.49
2023-05-06T15:26:50.170Z,23.45
2023-05-06T15:29:19.828Z,23.40
2023-05-06T15:31:49.623Z,23.34
2023-05-06T15:34:21.254Z,23.30
2023-05-06T15:36:55.411Z,23.43
2023-05-06T15:39:25.489Z,23.51
2023-05-06T15:41:55.653Z,23.51
2023-05-06T15:46:57.776Z,23.75
2023-05-06T15:49:49.288Z,23.80
2023-05-06T15:52:18.271Z,23.77
2023-05-06T15:54:49.872Z,23.74
2023-05-06T15:57:20.432Z,23.84
2023-05-06T15:59:50.496Z,23.70
2023-05-06T16:05:13.210Z,23.66
2023-05-06T16:07:43.511Z,23.64
2023-05-06T16:10:13.196Z,23.57
2023-05-06T16:12:43.448Z,23.42
2023-05-06T16:15:13.131Z,23.43
2023-05-06T16:17:43.234Z,23.37
2023-05-06T16:20:13.879Z,23.31
2023-05-06T16:22:50.537Z,23.46
2023-05-06T16:25:20.888Z,23.60
2023-05-06T16:27:50.986Z,24.00
2023-05-06T16:30:21.131Z,23.93
2023-05-06T16:32:51.023Z,23.90
2023-05-06T16:35:21.080Z,23.81
2023-05-06T16:37:51.118Z,23.77
2023-05-06T16:40:22.892Z,23.77
2023-05-06T16:42:54.190Z,23.80
2023-05-06T16:45:24.367Z,23.82
2023-05-06T16:47:54.834Z,23.94
2023-05-06T16:50:25.040Z,23.94
2023-05-06T16:52:55.472Z,23.91
2023-05-06T16:55:25.627Z,23.84
2023-05-06T16:57:55.281Z,23.91
2023-05-06T17:00:26.158Z,23.73
2023-05-06T17:02:56.673Z,23.70
2023-05-06T17:05:27.106Z,23.60
2023-05-06T17:07:58.012Z,23.54
2023-05-06T17:10:30.569Z,23.47
2023-05-06T17:13:00.789Z,23.45
2023-05-06T17:15:30.816Z,23.51
2023-05-06T17:18:00.871Z,23.47
2023-05-06T17:20:31.275Z,23.42
2023-05-06T17:23:01.427Z,23.43
2023-05-06T17:25:31.595Z,23.39
2023-05-06T17:28:01.776Z,23.36
2023-05-06T17:30:32.033Z,23.37
2023-05-06T17:33:02.000Z,23.36
2023-05-06T17:35:32.637Z,23.39
2023-05-06T17:38:02.786Z,23.40
2023-05-06T17:40:32.626Z,23.37
2023-05-06T17:43:02.881Z,23.36
2023-05-06T17:45:33.253Z,23.33
2023-05-06T17:48:03.430Z,23.33
2023-05-06T17:50:32.997Z,23.30
2023-05-06T17:53:02.963Z,23.19
2023-05-06T17:55:33.314Z,23.12
2023-05-06T17:58:02.657Z,23.10
2023-05-06T18:00:32.491Z,23.06
2023-05-06T18:03:02.552Z,22.95
2023-05-06T18:05:32.823Z,23.02
2023-05-06T18:08:02.739Z,23.09
2023-05-06T18:10:32.695Z,23.22
2023-05-06T18:13:02.694Z,23.27
2023-05-06T18:15:32.575Z,23.33
2023-05-06T18:18:02.606Z,23.40
2023-05-06T18:20:33.496Z,23.43
2023-05-06T18:23:03.548Z,23.43
2023-05-06T18:25:33.333Z,23.46
2023-05-06T18:28:03.547Z,23.46
2023-05-06T18:30:33.278Z,23.49
2023-05-06T18:33:03.164Z,23.47
2023-05-06T18:35:32.720Z,23.51
2023-05-06T18:38:02.418Z,23.45
2023-05-06T18:40:32.364Z,23.43
2023-05-06T18:43:02.802Z,23.45
2023-05-06T18:45:32.854Z,23.42
2023-05-06T18:48:02.942Z,23.39
2023-05-06T18:50:33.031Z,23.33
2023-05-06T18:53:03.129Z,23.31
2023-05-06T18:55:33.295Z,23.30
2023-05-06T18:58:07.059Z,23.39
2023-05-06T19:00:38.016Z,23.37
2023-05-06T19:03:08.182Z,23.40
2023-05-06T19:05:39.094Z,23.47
2023-05-06T19:08:11.319Z,23.46
2023-05-06T19:10:41.949Z,23.46
2023-05-06T19:13:32.433Z,23.49
2023-05-06T19:16:02.404Z,23.49
2023-05-06T19:18:32.463Z,23.50
2023-05-06T19:21:02.570Z,23.45
2023-05-06T19:23:33.369Z,23.40
2023-05-06T19:26:04.343Z,23.39
2023-05-06T19:28:34.700Z,23.42
2023-05-06T19:31:13.523Z,23.34
2023-05-06T19:33:44.857Z,23.29
2023-05-06T19:36:14.934Z,23.20
2023-05-06T19:38:45.041Z,23.16
2023-05-06T19:41:15.102Z,23.15
2023-05-06T19:43:46.229Z,23.10
2023-05-06T19:46:17.400Z,23.03
2023-05-06T19:48:47.787Z,22.99
2023-05-06T19:51:18.406Z,22.99
2023-05-06T19:53:50.149Z,22.99
2023-05-06T19:56:21.329Z,23.09
2023-05-06T19:58:52.491Z,23.15
2023-05-06T20:01:24.949Z,23.23
2023-05-06T20:03:56.262Z,23.16
2023-05-06T20:06:26.344Z,23.10
2023-05-06T20:08:56.409Z,23.03
2023-05-06T20:11:26.944Z,22.96
2023-05-06T20:13:57.006Z,22.92
2023-05-06T20:16:27.144Z,22.94
2023-05-06T20:18:57.684Z,22.91
2023-05-06T20:21:27.738Z,22.85
2023-05-06T20:23:57.550Z,22.79
2023-05-06T20:26:27.743Z,22.73
2023-05-06T20:28:57.613Z,22.76
2023-05-06T20:31:27.460Z,22.72
2023-05-06T20:33:57.424Z,22.68
2023-05-06T20:36:27.993Z,22.64
2023-05-06T20:38:58.260Z,22.58
2023-05-06T20:41:28.490Z,22.51
2023-05-06T20:43:58.590Z,22.44
2023-05-06T20:46:28.660Z,22.37
2023-05-06T20:49:00.206Z,22.41
2023-05-06T20:51:30.678Z,22.47
2023-05-06T20:54:01.096Z,22.45
2023-05-06T20:56:31.437Z,22.40
2023-05-06T20:59:01.123Z,22.35
2023-05-06T21:01:31.446Z,22.31
2023-05-06T21:04:02.671Z,22.28
2023-05-06T21:06:33.361Z,22.30
2023-05-06T21:09:03.532Z,22.27
2023-05-06T21:11:33.170Z,22.25
2023-05-06T21:14:03.221Z,22.21
2023-05-06T21:16:32.908Z,22.21
2023-05-06T21:19:02.839Z,22.17
2023-05-06T21:21:33.666Z,22.16
2023-05-06T21:24:03.758Z,22.16
2023-05-06T21:26:34.876Z,22.11
2023-05-06T21:29:07.769Z,22.08
2023-05-06T21:31:38.157Z,22.04
2023-05-06T21:34:09.172Z,22.04
2023-05-06T21:36:39.507Z,22.01
2023-05-06T21:39:13.508Z,22.01
2023-05-06T21:41:43.554Z,22.00
2023-05-06T21:44:13.427Z,21.97
2023-05-06T21:46:43.730Z,21.98
2023-05-06T21:49:13.841Z,21.96
2023-05-06T21:51:43.814Z,21.94
2023-05-06T21:54:13.708Z,21.96
2023-05-06T21:56:43.835Z,21.92
2023-05-06T21:59:14.414Z,21.90
2023-05-06T22:01:44.772Z,21.89
2023-05-06T22:04:14.968Z,21.89
2023-05-06T22:06:44.665Z,21.87
2023-05-06T22:09:14.590Z,21.86
2023-05-06T22:11:44.917Z,21.87
2023-05-06T22:14:16.174Z,21.86
2023-05-06T22:16:47.257Z,21.86
2023-05-06T22:19:16.889Z,21.87
2023-05-06T22:21:47.456Z,21.82
2023-05-06T22:24:17.800Z,21.80
2023-05-06T22:26:47.900Z,21.77
2023-05-06T22:29:17.950Z,21.77
2023-05-06T22:31:48.129Z,21.77
2023-05-06T22:34:17.717Z,21.80
2023-05-06T22:36:47.505Z,21.79
2023-05-06T22:39:17.461Z,21.76
2023-05-06T22:41:47.232Z,21.79
2023-05-06T22:44:17.348Z,21.82
2023-05-06T22:46:47.597Z,21.79
2023-05-06T22:49:17.508Z,21.79
2023-05-06T22:51:47.457Z,21.79
2023-05-06T22:54:17.976Z,21.79
2023-05-06T22:56:47.815Z,21.80
2023-05-06T22:59:17.880Z,21.79
2023-05-06T23:01:48.158Z,21.77
2023-05-06T23:04:17.856Z,21.77
2023-05-06T23:06:47.859Z,21.75
2023-05-06T23:09:17.926Z,21.76
2023-05-06T23:11:48.180Z,21.79
2023-05-06T23:14:18.473Z,21.77
2023-05-06T23:16:48.600Z,21.77
2023-05-06T23:19:18.923Z,21.79
2023-05-06T23:21:49.391Z,21.79
2023-05-06T23:24:19.390Z,21.80
2023-05-06T23:26:49.786Z,21.79
2023-05-06T23:29:19.890Z,21.75
2023-05-06T23:31:49.986Z,21.80
2023-05-06T23:34:20.092Z,21.79
2023-05-06T23:36:50.303Z,21.80
2023-05-06T23:39:19.958Z,21.85
2023-05-06T23:41:49.882Z,21.79
2023-05-06T23:44:20.201Z,21.79
2023-05-06T23:46:49.836Z,21.83
2023-05-06T23:49:19.895Z,21.80
2023-05-06T23:51:49.954Z,21.80
2023-05-06T23:54:19.981Z,21.82
2023-05-06T23:56:50.382Z,21.83
2023-05-06T23:59:20.520Z,21.85
